Time;durP1;ratioP1;P1;durP2;ratioP2;P2;SDS_P1;SDS_P2;PMS_P1;PMS_P2;Temp;Humidity;BMP_temperature;BMP_pressure;BME280_temperature;BME280_humidity;BME280_pressure;Samples;Min_cycle;Max_cycle;Signal;HPM_P1;HPM_P2
2022/02/09 00:11:44;;;;;;;16.88;10.70;;;8.30;99.90;;;;;;12511348;28;20049;-90
2022/02/09 01:39:57;;;;;;;20.90;10.65;;;8.20;99.90;;;;;;12522313;28;20049;-91
2022/02/09 01:58:41;;;;;;;15.85;10.57;;;8.20;99.90;;;;;;12515995;28;20057;-89
2022/02/09 02:04:45;;;;;;;18.63;11.43;;;8.30;99.90;;;;;;12501629;28;20060;-91
2022/02/09 02:11:08;;;;;;;14.50;9.85;;;8.30;99.90;;;;;;12498730;28;20053;-89
2022/02/09 03:13:59;;;;;;;11.63;6.30;;;8.20;99.90;;;;;;12528187;28;20085;-89
2022/02/09 03:20:17;;;;;;;;;;;8.20;99.90;;;;;;12511291;28;20547;-90
2022/02/09 03:26:41;;;;;;;14.02;7.82;;;8.10;99.90;;;;;;12529575;28;19920;-88
2022/02/09 03:57:58;;;;;;;10.05;7.22;;;8.20;99.90;;;;;;12536809;28;20640;-90
2022/02/09 04:04:02;;;;;;;9.90;6.63;;;8.00;99.90;;;;;;12510017;28;20060;-89
2022/02/09 04:10:06;;;;;;;15.77;6.93;;;8.10;99.90;;;;;;12510433;28;20458;-89
2022/02/09 04:16:31;;;;;;;7.93;4.90;;;8.10;99.90;;;;;;12517854;28;21128;-91
2022/02/09 04:23:17;;;;;;;;;;;8.10;99.90;;;;;;12533130;28;20045;-89
2022/02/09 05:25:48;;;;;;;14.23;9.00;;;7.70;99.90;;;;;;12522715;28;20067;-90
2022/02/09 05:31:50;;;;;;;11.35;8.77;;;7.70;99.90;;;;;;12516528;28;20117;-89
2022/02/09 05:37:55;;;;;;;12.35;8.98;;;7.70;99.90;;;;;;12510433;28;20191;-89
2022/02/09 05:43:57;;;;;;;13.13;9.27;;;7.70;99.90;;;;;;12494963;28;20052;-91
2022/02/09 05:50:36;;;;;;;12.85;8.13;;;7.80;99.90;;;;;;12512339;28;20421;-91
2022/02/09 05:56:41;;;;;;;12.00;8.30;;;7.70;99.90;;;;;;12540411;28;20565;-89
2022/02/09 06:02:44;;;;;;;10.35;7.32;;;7.80;99.90;;;;;;12508641;28;20044;-89
2022/02/09 06:08:46;;;;;;;11.18;7.38;;;7.80;99.90;;;;;;12507424;28;20057;-89
2022/02/09 06:21:26;;;;;;;8.50;6.70;;;7.80;99.90;;;;;;12436994;28;20553;-90
2022/02/09 06:27:28;;;;;;;11.23;7.30;;;7.80;99.90;;;;;;12487903;28;20083;-89
2022/02/09 06:33:30;;;;;;;10.75;7.28;;;7.80;99.90;;;;;;12504617;28;20045;-89
2022/02/09 06:39:33;;;;;;;11.18;7.45;;;7.90;99.90;;;;;;12505505;28;20453;-88
2022/02/09 06:45:38;;;;;;;10.07;7.53;;;7.90;99.90;;;;;;12506069;28;20112;-89
2022/02/09 06:51:40;;;;;;;;;;;7.90;99.90;;;;;;12503163;28;20083;-89
2022/02/09 07:03:53;;;;;;;10.65;7.95;;;7.80;99.90;;;;;;12515605;28;20063;-89
2022/02/09 07:09:55;;;;;;;13.05;9.48;;;7.80;99.90;;;;;;12506645;28;20069;-89
2022/02/09 07:16:04;;;;;;;13.98;10.48;;;7.80;99.90;;;;;;12495477;28;20562;-88
2022/02/09 07:22:13;;;;;;;17.20;12.57;;;7.70;99.90;;;;;;12501634;28;20100;-91
2022/02/09 07:28:15;;;;;;;17.58;13.20;;;7.60;99.90;;;;;;12493131;28;20064;-92
2022/02/09 07:34:17;;;;;;;17.60;13.18;;;7.60;99.90;;;;;;12474102;28;20068;-90
2022/02/09 07:40:22;;;;;;;19.67;13.77;;;7.50;99.90;;;;;;12500744;28;20406;-90
2022/02/09 07:59:05;;;;;;;17.85;13.23;;;7.50;99.90;;;;;;12530765;28;20056;-92
2022/02/09 08:05:07;;;;;;;21.63;12.85;;;7.50;99.90;;;;;;12505900;28;20024;-90
2022/02/09 08:36:41;;;;;;;23.42;15.82;;;7.50;99.90;;;;;;12527718;28;20840;-91
2022/02/09 08:42:48;;;;;;;18.23;14.88;;;7.60;99.90;;;;;;12531175;28;20135;-91
2022/02/09 08:49:14;;;;;;;19.60;14.73;;;7.50;99.90;;;;;;12506071;28;20054;-91
2022/02/09 08:55:44;;;;;;;16.45;13.65;;;7.60;99.90;;;;;;12497224;28;20056;-90
2022/02/09 09:01:55;;;;;;;15.13;12.40;;;7.60;99.90;;;;;;12519252;28;20052;-91
2022/02/09 09:08:13;;;;;;;14.02;12.32;;;7.70;99.90;;;;;;12505869;28;20184;-91
2022/02/09 09:59:54;;;;;;;8.48;7.57;;;8.00;99.90;;;;;;12523751;28;20053;-93
2022/02/09 10:37:44;;;;;;;7.57;5.43;;;8.30;99.90;;;;;;12524661;28;20064;-90
2022/02/09 10:43:47;;;;;;;7.32;5.63;;;8.20;99.90;;;;;;12517966;28;20483;-90
2022/02/09 10:50:09;;;;;;;7.40;6.47;;;8.20;99.90;;;;;;12505970;28;20041;-91
2022/02/09 10:56:15;;;;;;;8.63;6.30;;;8.20;99.90;;;;;;12512358;28;20482;-91
2022/02/09 11:02:27;;;;;;;7.97;6.50;;;8.20;99.90;;;;;;12501743;28;20045;-91
2022/02/09 11:08:31;;;;;;;8.30;7.03;;;8.30;99.90;;;;;;12506807;28;20106;-91
2022/02/09 11:14:47;;;;;;;11.07;8.03;;;8.20;99.90;;;;;;12468520;28;20049;-92
2022/02/09 11:21:13;;;;;;;10.13;8.23;;;8.30;99.90;;;;;;12502503;28;20072;-90
2022/02/09 11:27:30;;;;;;;10.20;9.10;;;8.30;99.90;;;;;;12478421;28;20061;-91
2022/02/09 11:33:57;;;;;;;10.98;9.05;;;8.40;99.90;;;;;;12484061;28;20049;-91
2022/02/09 11:40:36;;;;;;;12.25;9.63;;;8.30;99.90;;;;;;12478310;28;20563;-91
2022/02/09 11:47:13;;;;;;;11.18;10.07;;;8.30;99.90;;;;;;12477245;28;20083;-91
2022/02/09 12:13:02;;;;;;;13.10;9.98;;;8.20;99.90;;;;;;12482610;28;20625;-92
2022/02/09 12:19:11;;;;;;;;;;;8.10;99.90;;;;;;12479995;28;20053;-90
2022/02/09 12:25:21;;;;;;;11.88;10.60;;;8.10;99.90;;;;;;12504938;28;19925;-90
2022/02/09 12:31:25;;;;;;;9.45;7.03;;;8.20;99.90;;;;;;12527460;28;20049;-91
2022/02/09 12:37:35;;;;;;;8.63;7.72;;;8.20;99.90;;;;;;12513962;28;21053;-91
2022/02/09 12:43:56;;;;;;;8.27;6.57;;;8.20;99.90;;;;;;12512034;28;20067;-89
2022/02/09 12:50:03;;;;;;;9.02;6.50;;;8.20;99.90;;;;;;12532945;28;20072;-90
2022/02/09 12:56:23;;;;;;;10.60;6.97;;;8.20;99.90;;;;;;12506062;28;20049;-91
2022/02/09 13:02:44;;;;;;;7.88;5.95;;;8.30;99.90;;;;;;12522178;28;20164;-91
2022/02/09 13:08:53;;;;;;;6.45;4.97;;;8.40;99.90;;;;;;12509777;28;20044;-91
2022/02/09 13:15:10;;;;;;;10.07;7.20;;;8.50;99.90;;;;;;12511097;28;20847;-91
2022/02/09 13:22:17;;;;;;;8.73;5.57;;;8.60;99.90;;;;;;12495119;28;20519;-90
2022/02/09 14:12:46;;;;;;;6.47;3.00;;;9.00;99.90;;;;;;12498858;28;20155;-90
2022/02/09 14:19:12;;;;;;;10.32;3.25;;;9.10;99.90;;;;;;12509753;28;20114;-91
2022/02/09 14:57:02;;;;;;;4.57;3.50;;;8.80;99.90;;;;;;12525898;28;20049;-89
2022/02/09 15:15:57;;;;;;;5.87;4.43;;;8.70;99.90;;;;;;12517543;28;20084;-91
2022/02/09 15:22:08;;;;;;;7.75;4.90;;;8.60;99.90;;;;;;12520691;28;20097;-91
2022/02/09 15:28:12;;;;;;;6.47;4.80;;;8.60;99.90;;;;;;12497339;28;20136;-91
2022/02/09 15:34:23;;;;;;;7.63;4.55;;;8.50;99.90;;;;;;12482023;28;20082;-91
2022/02/09 15:59:55;;;;;;;7.50;5.45;;;8.50;99.90;;;;;;12520953;28;20052;-89
2022/02/09 16:06:29;;;;;;;9.00;5.63;;;8.50;99.90;;;;;;12505861;28;20050;-91
2022/02/09 16:25:37;;;;;;;7.50;5.07;;;8.40;99.90;;;;;;12506378;28;20064;-90
2022/02/09 16:38:22;;;;;;;6.03;4.30;;;8.30;99.90;;;;;;12523699;28;20061;-90
2022/02/09 16:44:39;;;;;;;5.57;4.10;;;8.30;99.90;;;;;;12510367;28;20747;-91
2022/02/09 16:50:48;;;;;;;6.60;4.22;;;8.30;99.90;;;;;;12497101;28;20160;-90
2022/02/09 17:21:38;;;;;;;7.00;4.72;;;8.20;99.90;;;;;;12528304;28;20053;-89
2022/02/09 17:27:43;;;;;;;7.80;5.10;;;8.20;99.90;;;;;;12501428;28;20049;-89
2022/02/09 17:59:15;;;;;;;7.90;5.68;;;8.10;99.90;;;;;;12527103;28;20733;-89
2022/02/09 18:43:01;;;;;;;12.38;8.75;;;8.10;99.90;;;;;;12522162;28;20114;-90
2022/02/09 19:26:19;;;;;;;18.88;9.70;;;8.10;99.90;;;;;;12520934;28;20118;-89
2022/02/09 19:27:03;;;;;;;17.07;10.67;;;8.10;99.90;;;;;;12511759;28;20072;-90
2022/02/09 19:33:26;;;;;;;15.63;9.93;;;8.10;99.90;;;;;;12504491;28;20098;-89
2022/02/09 19:52:17;;;;;;;14.18;10.65;;;8.00;99.90;;;;;;12519741;28;20045;-91
2022/02/09 19:58:23;;;;;;;14.82;10.85;;;7.90;99.90;;;;;;12497668;28;20773;-90
2022/02/09 20:04:25;;;;;;;17.00;11.10;;;8.00;99.90;;;;;;12498035;28;20076;-89
2022/02/09 20:10:27;;;;;;;18.00;12.77;;;8.00;99.90;;;;;;12505834;28;20056;-90
2022/02/09 20:16:30;;;;;;;17.90;12.27;;;8.00;99.90;;;;;;12513910;28;20147;-89
2022/02/09 20:22:33;;;;;;;19.60;12.90;;;8.00;99.90;;;;;;12512531;28;20406;-89
2022/02/09 20:28:38;;;;;;;19.92;13.70;;;8.00;99.90;;;;;;12467110;28;20893;-90
2022/02/09 20:35:16;;;;;;;20.63;14.40;;;8.00;99.90;;;;;;12460361;28;20129;-89
2022/02/09 20:41:10;;;;;;;20.83;14.23;;;8.00;99.90;;;;;;12475476;28;20115;-88
2022/02/09 20:47:14;;;;;;;18.90;14.57;;;8.00;99.90;;;;;;12474544;28;20167;-88
2022/02/09 20:53:16;;;;;;;22.20;14.75;;;7.90;99.90;;;;;;12479618;28;20046;-89
2022/02/09 20:59:19;;;;;;;25.95;16.08;;;7.90;99.90;;;;;;12471137;28;20049;-89
2022/02/09 21:11:44;;;;;;;21.30;15.57;;;7.90;99.90;;;;;;12472360;28;20083;-88
2022/02/09 21:18:14;;;;;;;25.13;15.05;;;7.90;99.90;;;;;;12468399;28;20520;-88
2022/02/09 21:31:38;;;;;;;23.00;15.40;;;8.00;99.90;;;;;;12523128;28;20049;-88
2022/02/09 22:21:43;;;;;;;24.25;13.30;;;7.80;99.90;;;;;;12522455;28;20106;-88
2022/02/09 22:27:47;;;;;;;19.83;12.50;;;7.80;99.90;;;;;;12530307;28;20413;-89
2022/02/09 22:58:40;;;;;;;19.20;11.45;;;7.80;99.90;;;;;;12522033;28;20493;-89
2022/02/09 23:55:37;;;;;;;17.38;9.85;;;7.90;99.90;;;;;;12533653;28;20067;-87
